createdAt,value
2023-03-18T00:00:46.575Z,10.40
2023-03-18T00:03:13.080Z,10.40
2023-03-18T00:05:40.620Z,10.40
2023-03-18T00:08:07.538Z,10.40
2023-03-18T00:10:35.147Z,10.40
2023-03-18T00:13:04.348Z,10.40
2023-03-18T00:15:31.156Z,10.40
2023-03-18T00:17:59.682Z,10.40
2023-03-18T00:20:38.290Z,10.40
2023-03-18T00:23:08.294Z,10.40
2023-03-18T00:25:36.839Z,10.40
2023-03-18T00:28:06.423Z,10.40
2023-03-18T00:30:34.683Z,10.40
2023-03-18T00:33:01.334Z,10.40
2023-03-18T00:35:30.483Z,10.40
2023-03-18T00:37:58.616Z,10.40
2023-03-18T00:40:42.757Z,10.40
2023-03-18T00:43:10.579Z,10.40
2023-03-18T00:45:39.004Z,10.40
2023-03-18T00:48:07.464Z,10.50
2023-03-18T00:50:35.069Z,10.50
2023-03-18T00:53:01.616Z,10.50
2023-03-18T00:55:29.446Z,10.50
2023-03-18T00:57:56.060Z,10.50
2023-03-18T01:00:22.645Z,10.50
2023-03-18T01:02:49.669Z,10.60
2023-03-18T01:05:16.483Z,10.60
2023-03-18T01:07:43.798Z,10.60
2023-03-18T01:10:12.744Z,10.60
2023-03-18T01:12:41.016Z,10.60
2023-03-18T01:15:11.117Z,10.60
2023-03-18T01:17:38.250Z,10.60
2023-03-18T01:20:06.029Z,10.60
2023-03-18T01:22:32.580Z,10.70
2023-03-18T01:24:59.155Z,10.60
2023-03-18T01:27:25.691Z,10.70
2023-03-18T01:29:53.004Z,10.70
2023-03-18T01:32:19.518Z,10.70
2023-03-18T01:34:46.181Z,10.70
2023-03-18T01:37:13.732Z,10.70
2023-03-18T01:39:41.048Z,10.70
2023-03-18T01:42:07.704Z,10.70
2023-03-18T01:44:34.300Z,10.70
2023-03-18T01:47:01.976Z,10.70
2023-03-18T01:49:32.872Z,10.80
2023-03-18T01:52:05.287Z,10.80
2023-03-18T01:54:37.781Z,10.80
2023-03-18T01:57:04.804Z,10.80
2023-03-18T01:59:34.772Z,10.80
2023-03-18T02:02:07.172Z,10.80
2023-03-18T02:04:39.078Z,10.80
2023-03-18T02:07:07.829Z,10.90
2023-03-18T02:09:34.565Z,10.90
2023-03-18T02:12:03.689Z,10.80
2023-03-18T02:14:30.711Z,10.90
2023-03-18T02:17:05.976Z,10.90
2023-03-18T02:19:58.264Z,10.90
2023-03-18T02:22:33.427Z,10.90
2023-03-18T02:25:09.872Z,10.90
2023-03-18T02:27:40.301Z,10.90
2023-03-18T02:30:16.471Z,10.80
2023-03-18T02:32:45.381Z,10.90
2023-03-18T02:35:12.245Z,10.90
2023-03-18T02:37:39.062Z,10.80
2023-03-18T02:40:21.054Z,10.80
2023-03-18T02:42:48.493Z,10.80
2023-03-18T02:45:39.473Z,10.80
2023-03-18T02:48:08.295Z,10.80
2023-03-18T02:50:34.832Z,10.80
2023-03-18T02:53:04.318Z,10.80
2023-03-18T02:55:31.199Z,10.80
2023-03-18T02:58:00.394Z,10.80
2023-03-18T03:00:26.925Z,10.80
2023-03-18T03:02:53.658Z,10.80
2023-03-18T03:05:20.664Z,10.80
2023-03-18T03:07:47.245Z,10.80
2023-03-18T03:10:14.313Z,10.70
2023-03-18T03:12:41.125Z,10.70
2023-03-18T03:15:08.497Z,10.70
2023-03-18T03:17:35.642Z,10.70
2023-03-18T03:20:06.044Z,10.70
2023-03-18T03:22:34.200Z,10.60
2023-03-18T03:25:01.174Z,10.70
2023-03-18T03:27:28.735Z,10.60
2023-03-18T03:29:55.673Z,10.60
2023-03-18T03:32:22.562Z,10.60
2023-03-18T03:34:50.241Z,10.60
2023-03-18T03:37:16.788Z,10.60
2023-03-18T03:39:44.486Z,10.50
2023-03-18T03:42:11.247Z,10.50
2023-03-18T03:44:38.064Z,10.50
2023-03-18T03:47:04.958Z,10.50
2023-03-18T03:49:31.467Z,10.50
2023-03-18T03:51:58.010Z,10.50
2023-03-18T03:54:25.668Z,10.50
2023-03-18T03:56:53.040Z,10.40
2023-03-18T03:59:19.906Z,10.50
2023-03-18T04:01:46.804Z,10.40
2023-03-18T04:04:13.413Z,10.40
2023-03-18T04:06:40.156Z,10.40
2023-03-18T04:09:06.716Z,10.40
2023-03-18T04:11:33.273Z,10.40
2023-03-18T04:13:59.994Z,10.30
2023-03-18T04:16:26.571Z,10.40
2023-03-18T04:18:53.089Z,10.30
2023-03-18T04:21:19.792Z,10.30
2023-03-18T04:23:46.419Z,10.30
2023-03-18T04:26:13.401Z,10.30
2023-03-18T04:28:40.454Z,10.30
2023-03-18T04:31:07.659Z,10.30
2023-03-18T04:33:34.179Z,10.30
2023-03-18T04:36:00.816Z,10.30
2023-03-18T04:38:28.381Z,10.30
2023-03-18T04:40:55.059Z,10.30
2023-03-18T04:43:22.072Z,10.30
2023-03-18T04:45:49.015Z,10.30
2023-03-18T04:48:15.689Z,10.30
2023-03-18T04:50:43.451Z,10.30
2023-03-18T04:53:10.046Z,10.30
2023-03-18T04:55:36.716Z,10.30
2023-03-18T04:58:03.648Z,10.30
2023-03-18T05:00:30.911Z,10.30
2023-03-18T05:02:57.602Z,10.30
2023-03-18T05:05:24.158Z,10.30
2023-03-18T05:07:51.605Z,10.30
2023-03-18T05:10:19.100Z,10.30
2023-03-18T05:12:45.900Z,10.30
2023-03-18T05:15:14.225Z,10.30
2023-03-18T05:17:40.858Z,10.30
2023-03-18T05:20:08.794Z,10.30
2023-03-18T05:22:35.507Z,10.30
2023-03-18T05:25:02.350Z,10.30
2023-03-18T05:27:29.665Z,10.20
2023-03-18T05:29:56.951Z,10.30
2023-03-18T05:32:23.929Z,10.30
2023-03-18T05:34:51.051Z,10.30
2023-03-18T05:37:17.562Z,10.30
2023-03-18T05:39:45.335Z,10.30
2023-03-18T05:42:12.457Z,10.20
2023-03-18T05:44:40.262Z,10.30
2023-03-18T05:47:07.303Z,10.30
2023-03-18T05:49:33.940Z,10.30
2023-03-18T05:52:01.249Z,10.20
2023-03-18T05:54:28.329Z,10.30
2023-03-18T05:56:55.337Z,10.30
2023-03-18T05:59:23.775Z,10.30
2023-03-18T06:01:50.993Z,10.30
2023-03-18T06:04:19.111Z,10.30
2023-03-18T06:06:46.570Z,10.30
2023-03-18T06:09:13.962Z,10.30
2023-03-18T06:11:40.857Z,10.30
2023-03-18T06:14:09.274Z,10.30
2023-03-18T06:16:36.381Z,10.30
2023-03-18T06:19:04.421Z,10.30
2023-03-18T06:21:33.253Z,10.30
2023-03-18T06:24:01.445Z,10.30
2023-03-18T06:26:28.207Z,10.30
2023-03-18T06:28:54.834Z,10.30
2023-03-18T06:31:22.324Z,10.30
2023-03-18T06:33:49.022Z,10.30
2023-03-18T06:36:16.692Z,10.30
2023-03-18T06:38:44.778Z,10.30
2023-03-18T06:41:12.081Z,10.30
2023-03-18T06:43:39.073Z,10.40
2023-03-18T06:46:05.693Z,10.40
2023-03-18T06:48:32.819Z,10.40
2023-03-18T06:50:59.497Z,10.40
2023-03-18T06:53:27.422Z,10.40
2023-03-18T06:55:53.997Z,10.40
2023-03-18T06:58:20.670Z,10.40
2023-03-18T07:00:47.729Z,10.40
2023-03-18T07:03:15.772Z,10.40
2023-03-18T07:05:42.874Z,10.40
2023-03-18T07:08:10.157Z,10.40
2023-03-18T07:10:37.370Z,10.50
2023-03-18T07:13:04.739Z,10.40
2023-03-18T07:15:32.994Z,10.50
2023-03-18T07:18:00.497Z,10.50
2023-03-18T07:20:28.066Z,10.50
2023-03-18T07:22:54.791Z,10.50
2023-03-18T07:25:23.103Z,10.50
2023-03-18T07:27:49.854Z,10.50
2023-03-18T07:30:17.882Z,10.50
2023-03-18T07:32:46.184Z,10.60
2023-03-18T07:35:15.977Z,10.60
2023-03-18T07:37:42.586Z,10.60
2023-03-18T07:40:11.583Z,10.60
2023-03-18T07:42:38.447Z,10.60
2023-03-18T07:45:06.702Z,10.60
2023-03-18T07:47:33.675Z,10.70
2023-03-18T07:50:00.315Z,10.70
2023-03-18T07:52:26.914Z,10.70
2023-03-18T07:54:53.502Z,10.70
2023-03-18T07:57:20.168Z,10.70
2023-03-18T07:59:46.755Z,10.70
2023-03-18T08:02:14.575Z,10.70
2023-03-18T08:04:42.666Z,10.70
2023-03-18T08:07:10.300Z,10.70
2023-03-18T08:09:37.290Z,10.80
2023-03-18T08:12:04.326Z,10.80
2023-03-18T08:14:31.222Z,10.80
2023-03-18T08:16:58.024Z,10.80
2023-03-18T08:19:24.541Z,10.80
2023-03-18T08:21:51.079Z,10.80
2023-03-18T08:24:18.265Z,10.80
2023-03-18T08:26:45.175Z,10.80
2023-03-18T08:29:11.722Z,10.80
2023-03-18T08:31:38.815Z,10.80
2023-03-18T08:34:08.574Z,10.80
2023-03-18T08:36:35.143Z,10.90
2023-03-18T08:39:01.944Z,10.90
2023-03-18T08:41:29.819Z,10.90
2023-03-18T08:43:57.320Z,10.90
2023-03-18T08:46:24.137Z,10.90
2023-03-18T08:48:51.405Z,11.00
2023-03-18T08:51:17.972Z,11.00
2023-03-18T08:53:44.507Z,11.00
2023-03-18T08:56:12.928Z,11.00
2023-03-18T08:58:39.854Z,11.00
2023-03-18T09:01:08.699Z,11.10
2023-03-18T09:03:36.727Z,11.10
2023-03-18T09:06:03.607Z,11.10
2023-03-18T09:08:31.090Z,11.10
2023-03-18T09:10:58.073Z,11.10
2023-03-18T09:13:25.307Z,11.10
2023-03-18T09:15:52.027Z,11.10
2023-03-18T09:18:19.315Z,11.10
2023-03-18T09:20:46.123Z,11.10
2023-03-18T09:23:14.126Z,11.10
2023-03-18T09:25:44.172Z,11.10
2023-03-18T09:28:10.731Z,11.10
2023-03-18T09:30:38.097Z,11.10
2023-03-18T09:33:06.722Z,11.10
2023-03-18T09:35:35.271Z,11.10
2023-03-18T09:38:02.124Z,11.10
2023-03-18T09:40:32.560Z,11.10
2023-03-18T09:43:20.848Z,11.10
2023-03-18T09:46:12.793Z,11.20
2023-03-18T09:49:16.610Z,11.20
2023-03-18T09:52:02.125Z,11.20
2023-03-18T09:54:41.143Z,11.30
2023-03-18T09:57:26.578Z,11.30
2023-03-18T10:00:05.304Z,11.40
2023-03-18T10:02:42.471Z,11.40
2023-03-18T10:31:31.948Z,11.50
2023-03-18T10:34:03.965Z,12.00
2023-03-18T10:36:49.640Z,12.00
2023-03-18T10:39:19.430Z,12.10
2023-03-18T10:41:54.146Z,12.10
2023-03-18T10:44:26.781Z,12.10
2023-03-18T10:47:03.561Z,12.20
2023-03-18T10:49:38.545Z,12.20
2023-03-18T10:52:18.295Z,12.30
2023-03-18T10:54:52.805Z,12.30
2023-03-18T10:57:21.535Z,12.30
2023-03-18T10:59:51.222Z,12.40
2023-03-18T11:02:45.800Z,12.50
2023-03-18T11:05:23.633Z,12.60
2023-03-18T11:08:06.349Z,12.70
2023-03-18T11:10:40.351Z,12.70
2023-03-18T11:13:06.984Z,12.80
2023-03-18T11:15:40.261Z,12.90
2023-03-18T11:18:19.610Z,13.00
2023-03-18T11:20:47.984Z,13.10
2023-03-18T11:23:46.115Z,13.10
2023-03-18T11:26:46.870Z,13.20
2023-03-18T11:29:18.629Z,13.30
2023-03-18T11:31:57.523Z,13.40
2023-03-18T11:34:26.150Z,13.40
2023-03-18T11:37:13.047Z,13.50
